sensor_id;sensor_type;location;lat;lon;timestamp;temperature;humidity
4518;DHT22;2271;49.464;11.070;2022-12-17T00:02:11;-0.90;99.90
4518;DHT22;2271;49.464;11.070;2022-12-17T00:04:55;-0.90;99.90
4518;DHT22;2271;49.464;11.070;2022-12-17T00:07:39;-0.90;99.90
4518;DHT22;2271;49.464;11.070;2022-12-17T00:10:23;-0.90;99.90
4518;DHT22;2271;49.464;11.070;2022-12-17T00:13:17;-0.90;99.90
4518;DHT22;2271;49.464;11.070;2022-12-17T00:16:01;-0.90;99.90
4518;DHT22;2271;49.464;11.070;2022-12-17T00:18:45;-0.90;99.90
4518;DHT22;2271;49.464;11.070;2022-12-17T00:21:29;-0.80;99.90
4518;DHT22;2271;49.464;11.070;2022-12-17T00:24:13;-0.80;99.90
4518;DHT22;2271;49.464;11.070;2022-12-17T00:26:57;-0.80;99.90
4518;DHT22;2271;49.464;11.070;2022-12-17T00:29:41;-0.80;99.90
4518;DHT22;2271;49.464;11.070;2022-12-17T00:32:25;-0.80;99.90
4518;DHT22;2271;49.464;11.070;2022-12-17T00:35:09;-0.70;99.90
4518;DHT22;2271;49.464;11.070;2022-12-17T00:37:53;-0.70;99.90
4518;DHT22;2271;49.464;11.070;2022-12-17T00:40:37;-0.80;99.90
4518;DHT22;2271;49.464;11.070;2022-12-17T00:43:23;-0.80;99.90
4518;DHT22;2271;49.464;11.070;2022-12-17T00:46:07;-0.80;99.90
4518;DHT22;2271;49.464;11.070;2022-12-17T00:48:51;-0.70;99.90
4518;DHT22;2271;49.464;11.070;2022-12-17T00:51:35;-0.70;99.90
4518;DHT22;2271;49.464;11.070;2022-12-17T00:54:19;-0.70;99.90
4518;DHT22;2271;49.464;11.070;2022-12-17T00:57:04;-0.80;99.90
4518;DHT22;2271;49.464;11.070;2022-12-17T00:59:48;-0.80;99.90
4518;DHT22;2271;49.464;11.070;2022-12-17T01:02:32;-0.80;99.90
4518;DHT22;2271;49.464;11.070;2022-12-17T01:05:16;-0.80;99.90
4518;DHT22;2271;49.464;11.070;2022-12-17T01:08:08;-0.80;99.90
4518;DHT22;2271;49.464;11.070;2022-12-17T01:10:58;-0.80;99.90
4518;DHT22;2271;49.464;11.070;2022-12-17T01:13:42;-0.90;99.90
4518;DHT22;2271;49.464;11.070;2022-12-17T01:16:26;-0.90;99.90
4518;DHT22;2271;49.464;11.070;2022-12-17T01:19:10;-0.90;99.90
4518;DHT22;2271;49.464;11.070;2022-12-17T01:21:54;-1.00;99.90
4518;DHT22;2271;49.464;11.070;2022-12-17T01:24:38;-1.10;99.90
4518;DHT22;2271;49.464;11.070;2022-12-17T01:27:22;-1.20;99.90
4518;DHT22;2271;49.464;11.070;2022-12-17T01:30:07;-1.10;99.90
4518;DHT22;2271;49.464;11.070;2022-12-17T01:32:51;-1.20;99.90
4518;DHT22;2271;49.464;11.070;2022-12-17T01:35:35;-1.20;99.90
4518;DHT22;2271;49.464;11.070;2022-12-17T01:38:19;-1.20;99.90
4518;DHT22;2271;49.464;11.070;2022-12-17T01:41:04;-1.20;99.90
4518;DHT22;2271;49.464;11.070;2022-12-17T01:43:49;-1.20;99.90
4518;DHT22;2271;49.464;11.070;2022-12-17T01:46:35;-1.20;99.90
4518;DHT22;2271;49.464;11.070;2022-12-17T01:49:22;-1.30;99.90
4518;DHT22;2271;49.464;11.070;2022-12-17T01:52:09;-1.30;99.90
4518;DHT22;2271;49.464;11.070;2022-12-17T01:54:54;-1.40;99.90
4518;DHT22;2271;49.464;11.070;2022-12-17T01:57:38;-1.30;99.90
4518;DHT22;2271;49.464;11.070;2022-12-17T02:00:23;-1.40;99.90
4518;DHT22;2271;49.464;11.070;2022-12-17T02:03:15;-1.40;99.90
4518;DHT22;2271;49.464;11.070;2022-12-17T02:06:10;-1.50;99.90
4518;DHT22;2271;49.464;11.070;2022-12-17T02:09:17;-1.60;99.90
4518;DHT22;2271;49.464;11.070;2022-12-17T02:15:11;-1.60;99.90
4518;DHT22;2271;49.464;11.070;2022-12-17T02:17:59;-1.70;99.90
4518;DHT22;2271;49.464;11.070;2022-12-17T02:20:51;-1.70;99.90
4518;DHT22;2271;49.464;11.070;2022-12-17T02:26:48;-1.70;99.90
4518;DHT22;2271;49.464;11.070;2022-12-17T02:29:47;-1.70;99.90
4518;DHT22;2271;49.464;11.070;2022-12-17T02:32:33;-1.80;99.90
4518;DHT22;2271;49.464;11.070;2022-12-17T02:35:23;-1.80;99.90
4518;DHT22;2271;49.464;11.070;2022-12-17T02:38:23;-1.80;99.90
4518;DHT22;2271;49.464;11.070;2022-12-17T02:41:32;-1.90;99.90
4518;DHT22;2271;49.464;11.070;2022-12-17T02:44:16;-1.90;99.90
4518;DHT22;2271;49.464;11.070;2022-12-17T02:47:04;-2.10;99.90
4518;DHT22;2271;49.464;11.070;2022-12-17T02:49:49;-2.10;99.90
4518;DHT22;2271;49.464;11.070;2022-12-17T02:52:35;-2.10;99.90
4518;DHT22;2271;49.464;11.070;2022-12-17T02:55:20;-2.10;99.90
4518;DHT22;2271;49.464;11.070;2022-12-17T02:58:04;-2.10;99.90
4518;DHT22;2271;49.464;11.070;2022-12-17T03:00:48;-2.10;99.90
4518;DHT22;2271;49.464;11.070;2022-12-17T03:03:32;-2.10;99.90
4518;DHT22;2271;49.464;11.070;2022-12-17T03:06:16;-2.20;99.90
4518;DHT22;2271;49.464;11.070;2022-12-17T03:09:00;-2.20;99.90
4518;DHT22;2271;49.464;11.070;2022-12-17T03:11:44;-2.20;99.90
4518;DHT22;2271;49.464;11.070;2022-12-17T03:14:28;-2.30;99.90
4518;DHT22;2271;49.464;11.070;2022-12-17T03:17:12;-2.30;99.90
4518;DHT22;2271;49.464;11.070;2022-12-17T03:19:56;-2.30;99.90
4518;DHT22;2271;49.464;11.070;2022-12-17T03:22:40;-2.30;99.90
4518;DHT22;2271;49.464;11.070;2022-12-17T03:25:25;-2.40;99.90
4518;DHT22;2271;49.464;11.070;2022-12-17T03:28:10;-2.40;99.90
4518;DHT22;2271;49.464;11.070;2022-12-17T03:30:58;-2.40;99.90
4518;DHT22;2271;49.464;11.070;2022-12-17T03:33:42;-2.40;99.90
4518;DHT22;2271;49.464;11.070;2022-12-17T03:36:26;-2.40;99.90
4518;DHT22;2271;49.464;11.070;2022-12-17T03:39:10;-2.40;99.90
4518;DHT22;2271;49.464;11.070;2022-12-17T03:41:54;-2.40;99.90
4518;DHT22;2271;49.464;11.070;2022-12-17T03:44:38;-2.50;99.90
4518;DHT22;2271;49.464;11.070;2022-12-17T03:47:22;-2.50;99.90
4518;DHT22;2271;49.464;11.070;2022-12-17T03:50:06;-2.50;99.90
4518;DHT22;2271;49.464;11.070;2022-12-17T03:52:51;-2.60;99.90
4518;DHT22;2271;49.464;11.070;2022-12-17T03:55:34;-2.60;99.90
4518;DHT22;2271;49.464;11.070;2022-12-17T03:58:19;-2.60;99.90
4518;DHT22;2271;49.464;11.070;2022-12-17T04:01:03;-2.60;99.90
4518;DHT22;2271;49.464;11.070;2022-12-17T04:03:47;-2.60;99.90
4518;DHT22;2271;49.464;11.070;2022-12-17T04:06:31;-2.60;99.90
4518;DHT22;2271;49.464;11.070;2022-12-17T04:09:15;-2.60;99.90
4518;DHT22;2271;49.464;11.070;2022-12-17T04:11:59;-2.60;99.90
4518;DHT22;2271;49.464;11.070;2022-12-17T04:14:43;-2.60;99.90
4518;DHT22;2271;49.464;11.070;2022-12-17T04:17:27;-2.60;99.90
4518;DHT22;2271;49.464;11.070;2022-12-17T04:20:12;-2.60;99.90
4518;DHT22;2271;49.464;11.070;2022-12-17T04:22:56;-2.70;99.90
4518;DHT22;2271;49.464;11.070;2022-12-17T04:25:40;-2.70;99.90
4518;DHT22;2271;49.464;11.070;2022-12-17T04:28:24;-2.70;99.90
4518;DHT22;2271;49.464;11.070;2022-12-17T04:31:08;-2.70;99.90
4518;DHT22;2271;49.464;11.070;2022-12-17T04:33:52;-2.70;99.90
4518;DHT22;2271;49.464;11.070;2022-12-17T04:36:36;-2.70;99.90
4518;DHT22;2271;49.464;11.070;2022-12-17T04:39:20;-2.80;99.90
4518;DHT22;2271;49.464;11.070;2022-12-17T04:42:04;-2.80;99.90
4518;DHT22;2271;49.464;11.070;2022-12-17T04:44:48;-2.80;99.90
4518;DHT22;2271;49.464;11.070;2022-12-17T04:47:32;-2.90;99.90
4518;DHT22;2271;49.464;11.070;2022-12-17T04:50:16;-2.90;99.90
4518;DHT22;2271;49.464;11.070;2022-12-17T04:53:01;-2.90;99.90
4518;DHT22;2271;49.464;11.070;2022-12-17T04:55:46;-3.00;99.90
4518;DHT22;2271;49.464;11.070;2022-12-17T04:58:31;-3.00;99.90
4518;DHT22;2271;49.464;11.070;2022-12-17T05:01:15;-2.90;99.90
4518;DHT22;2271;49.464;11.070;2022-12-17T05:04:00;-2.90;99.90
4518;DHT22;2271;49.464;11.070;2022-12-17T05:06:44;-2.90;99.90
4518;DHT22;2271;49.464;11.070;2022-12-17T05:09:28;-2.90;99.90
4518;DHT22;2271;49.464;11.070;2022-12-17T05:12:12;-3.00;99.90
4518;DHT22;2271;49.464;11.070;2022-12-17T05:14:56;-3.10;99.90
4518;DHT22;2271;49.464;11.070;2022-12-17T05:17:40;-3.10;99.90
4518;DHT22;2271;49.464;11.070;2022-12-17T05:20:24;-3.10;99.90
4518;DHT22;2271;49.464;11.070;2022-12-17T05:23:08;-3.10;99.90
4518;DHT22;2271;49.464;11.070;2022-12-17T05:28:46;-3.20;99.90
4518;DHT22;2271;49.464;11.070;2022-12-17T05:31:30;-3.20;99.90
4518;DHT22;2271;49.464;11.070;2022-12-17T05:34:14;-3.30;99.90
4518;DHT22;2271;49.464;11.070;2022-12-17T05:36:58;-3.30;99.90
4518;DHT22;2271;49.464;11.070;2022-12-17T05:39:42;-3.30;99.90
4518;DHT22;2271;49.464;11.070;2022-12-17T05:42:27;-3.30;99.90
4518;DHT22;2271;49.464;11.070;2022-12-17T05:45:11;-3.30;99.90
4518;DHT22;2271;49.464;11.070;2022-12-17T05:47:58;-3.40;99.90
4518;DHT22;2271;49.464;11.070;2022-12-17T05:50:42;-3.40;99.90
4518;DHT22;2271;49.464;11.070;2022-12-17T05:53:41;-3.40;99.90
4518;DHT22;2271;49.464;11.070;2022-12-17T05:56:26;-3.40;99.90
4518;DHT22;2271;49.464;11.070;2022-12-17T05:59:10;-3.40;99.90
4518;DHT22;2271;49.464;11.070;2022-12-17T06:01:54;-3.40;99.90
4518;DHT22;2271;49.464;11.070;2022-12-17T06:04:38;-3.40;99.90
4518;DHT22;2271;49.464;11.070;2022-12-17T06:07:22;-3.40;99.90
4518;DHT22;2271;49.464;11.070;2022-12-17T06:10:06;-3.40;99.90
4518;DHT22;2271;49.464;11.070;2022-12-17T06:12:55;-3.50;99.90
4518;DHT22;2271;49.464;11.070;2022-12-17T06:15:39;-3.40;99.90
4518;DHT22;2271;49.464;11.070;2022-12-17T06:18:24;-3.40;99.90
4518;DHT22;2271;49.464;11.070;2022-12-17T06:21:08;-3.50;99.90
4518;DHT22;2271;49.464;11.070;2022-12-17T06:23:52;-3.50;99.90
4518;DHT22;2271;49.464;11.070;2022-12-17T06:26:36;-3.40;99.90
4518;DHT22;2271;49.464;11.070;2022-12-17T06:29:20;-3.40;99.90
4518;DHT22;2271;49.464;11.070;2022-12-17T06:32:04;-3.40;99.90
4518;DHT22;2271;49.464;11.070;2022-12-17T06:34:48;-3.50;99.90
4518;DHT22;2271;49.464;11.070;2022-12-17T06:37:32;-3.50;99.90
4518;DHT22;2271;49.464;11.070;2022-12-17T06:40:16;-3.50;99.90
4518;DHT22;2271;49.464;11.070;2022-12-17T06:43:00;-3.50;99.90
4518;DHT22;2271;49.464;11.070;2022-12-17T06:45:44;-3.50;99.90
4518;DHT22;2271;49.464;11.070;2022-12-17T06:48:45;-3.50;99.90
4518;DHT22;2271;49.464;11.070;2022-12-17T06:51:29;-3.60;99.90
4518;DHT22;2271;49.464;11.070;2022-12-17T06:54:13;-3.60;99.90
4518;DHT22;2271;49.464;11.070;2022-12-17T06:56:58;-3.60;99.90
4518;DHT22;2271;49.464;11.070;2022-12-17T06:59:42;-3.60;99.90
4518;DHT22;2271;49.464;11.070;2022-12-17T07:02:26;-3.50;99.90
4518;DHT22;2271;49.464;11.070;2022-12-17T07:05:10;-3.50;99.90
4518;DHT22;2271;49.464;11.070;2022-12-17T07:08:00;-3.60;99.90
4518;DHT22;2271;49.464;11.070;2022-12-17T07:10:44;-3.60;99.90
4518;DHT22;2271;49.464;11.070;2022-12-17T07:13:28;-3.60;99.90
4518;DHT22;2271;49.464;11.070;2022-12-17T07:16:12;-3.50;99.90
4518;DHT22;2271;49.464;11.070;2022-12-17T07:18:57;-3.50;99.90
4518;DHT22;2271;49.464;11.070;2022-12-17T07:21:41;-3.50;99.90
4518;DHT22;2271;49.464;11.070;2022-12-17T07:24:25;-3.50;99.90
4518;DHT22;2271;49.464;11.070;2022-12-17T07:27:10;-3.50;99.90
4518;DHT22;2271;49.464;11.070;2022-12-17T07:29:53;-3.50;99.90
4518;DHT22;2271;49.464;11.070;2022-12-17T07:32:38;-3.50;99.90
4518;DHT22;2271;49.464;11.070;2022-12-17T07:35:22;-3.50;99.90
4518;DHT22;2271;49.464;11.070;2022-12-17T07:38:06;-3.50;99.90
4518;DHT22;2271;49.464;11.070;2022-12-17T07:40:50;-3.50;99.90
4518;DHT22;2271;49.464;11.070;2022-12-17T07:43:34;-3.40;99.90
4518;DHT22;2271;49.464;11.070;2022-12-17T07:46:18;-3.40;99.90
4518;DHT22;2271;49.464;11.070;2022-12-17T07:49:02;-3.40;99.90
4518;DHT22;2271;49.464;11.070;2022-12-17T07:51:46;-3.40;99.90
4518;DHT22;2271;49.464;11.070;2022-12-17T07:54:30;-3.40;99.90
4518;DHT22;2271;49.464;11.070;2022-12-17T07:57:14;-3.50;99.90
4518;DHT22;2271;49.464;11.070;2022-12-17T07:59:58;-3.50;99.90
4518;DHT22;2271;49.464;11.070;2022-12-17T08:02:42;-3.40;99.90
4518;DHT22;2271;49.464;11.070;2022-12-17T08:05:26;-3.40;99.90
4518;DHT22;2271;49.464;11.070;2022-12-17T08:08:12;-3.40;99.90
4518;DHT22;2271;49.464;11.070;2022-12-17T08:10:56;-3.40;99.90
4518;DHT22;2271;49.464;11.070;2022-12-17T08:13:41;-3.40;99.90
4518;DHT22;2271;49.464;11.070;2022-12-17T08:16:25;-3.50;99.90
4518;DHT22;2271;49.464;11.070;2022-12-17T08:19:11;-3.50;99.90
4518;DHT22;2271;49.464;11.070;2022-12-17T08:21:56;-3.50;99.90
4518;DHT22;2271;49.464;11.070;2022-12-17T08:24:40;-3.40;99.90
4518;DHT22;2271;49.464;11.070;2022-12-17T08:27:24;-3.40;99.90
4518;DHT22;2271;49.464;11.070;2022-12-17T08:30:09;-3.40;99.90
4518;DHT22;2271;49.464;11.070;2022-12-17T08:32:53;-3.40;99.90
4518;DHT22;2271;49.464;11.070;2022-12-17T08:35:37;-3.40;99.90
4518;DHT22;2271;49.464;11.070;2022-12-17T08:38:21;-3.40;99.90
4518;DHT22;2271;49.464;11.070;2022-12-17T08:41:05;-3.40;99.90
4518;DHT22;2271;49.464;11.070;2022-12-17T08:43:49;-3.40;99.90
4518;DHT22;2271;49.464;11.070;2022-12-17T08:46:33;-3.40;99.90
4518;DHT22;2271;49.464;11.070;2022-12-17T08:49:17;-3.30;99.90
4518;DHT22;2271;49.464;11.070;2022-12-17T08:52:01;-3.30;99.90
4518;DHT22;2271;49.464;11.070;2022-12-17T08:54:45;-3.30;99.90
4518;DHT22;2271;49.464;11.070;2022-12-17T08:57:29;-3.30;99.90
4518;DHT22;2271;49.464;11.070;2022-12-17T09:00:13;-3.30;99.90
4518;DHT22;2271;49.464;11.070;2022-12-17T09:03:00;-3.30;99.90
4518;DHT22;2271;49.464;11.070;2022-12-17T09:05:45;-3.30;99.90
4518;DHT22;2271;49.464;11.070;2022-12-17T09:08:29;-3.30;99.90
4518;DHT22;2271;49.464;11.070;2022-12-17T09:11:14;-3.30;99.90
4518;DHT22;2271;49.464;11.070;2022-12-17T09:13:58;-3.30;99.90
4518;DHT22;2271;49.464;11.070;2022-12-17T09:16:43;-3.30;99.90
4518;DHT22;2271;49.464;11.070;2022-12-17T09:19:26;-3.20;99.90
4518;DHT22;2271;49.464;11.070;2022-12-17T09:22:11;-3.20;99.90
4518;DHT22;2271;49.464;11.070;2022-12-17T09:24:55;-3.30;99.90
4518;DHT22;2271;49.464;11.070;2022-12-17T09:27:39;-3.20;99.90
4518;DHT22;2271;49.464;11.070;2022-12-17T09:30:23;-3.30;99.90
4518;DHT22;2271;49.464;11.070;2022-12-17T09:33:07;-3.30;99.90
4518;DHT22;2271;49.464;11.070;2022-12-17T09:35:56;-3.20;99.90
4518;DHT22;2271;49.464;11.070;2022-12-17T09:38:40;-3.20;99.90
4518;DHT22;2271;49.464;11.070;2022-12-17T09:41:27;-3.20;99.90
4518;DHT22;2271;49.464;11.070;2022-12-17T09:50:43;-3.10;99.90
4518;DHT22;2271;49.464;11.070;2022-12-17T09:53:38;-3.10;99.90
4518;DHT22;2271;49.464;11.070;2022-12-17T09:56:28;-3.10;99.90
4518;DHT22;2271;49.464;11.070;2022-12-17T09:59:26;-3.10;99.90
4518;DHT22;2271;49.464;11.070;2022-12-17T10:02:18;-3.00;99.90
4518;DHT22;2271;49.464;11.070;2022-12-17T10:05:05;-3.00;99.90
4518;DHT22;2271;49.464;11.070;2022-12-17T10:07:50;-3.00;99.90
4518;DHT22;2271;49.464;11.070;2022-12-17T10:10:35;-2.90;99.90
4518;DHT22;2271;49.464;11.070;2022-12-17T10:13:22;-2.90;99.90
4518;DHT22;2271;49.464;11.070;2022-12-17T10:16:29;-2.80;99.90
4518;DHT22;2271;49.464;11.070;2022-12-17T10:19:16;-2.80;99.90
4518;DHT22;2271;49.464;11.070;2022-12-17T10:22:11;-2.80;99.90
4518;DHT22;2271;49.464;11.070;2022-12-17T10:24:56;-2.80;99.90
4518;DHT22;2271;49.464;11.070;2022-12-17T10:27:40;-2.80;99.90
4518;DHT22;2271;49.464;11.070;2022-12-17T10:30:26;-2.80;99.90
4518;DHT22;2271;49.464;11.070;2022-12-17T10:33:17;-2.80;99.90
4518;DHT22;2271;49.464;11.070;2022-12-17T10:36:18;-2.80;99.90
4518;DHT22;2271;49.464;11.070;2022-12-17T10:39:03;-2.80;99.90
4518;DHT22;2271;49.464;11.070;2022-12-17T10:41:48;-2.80;99.90
4518;DHT22;2271;49.464;11.070;2022-12-17T10:44:36;-2.80;99.90
4518;DHT22;2271;49.464;11.070;2022-12-17T10:47:22;-2.70;99.90
4518;DHT22;2271;49.464;11.070;2022-12-17T10:50:10;-2.60;99.90
4518;DHT22;2271;49.464;11.070;2022-12-17T10:52:56;-2.60;99.90
4518;DHT22;2271;49.464;11.070;2022-12-17T10:56:17;-2.50;99.90
4518;DHT22;2271;49.464;11.070;2022-12-17T10:59:10;-2.50;99.90
4518;DHT22;2271;49.464;11.070;2022-12-17T11:01:58;-2.40;99.90
4518;DHT22;2271;49.464;11.070;2022-12-17T11:04:51;-2.40;99.90
4518;DHT22;2271;49.464;11.070;2022-12-17T11:07:39;-2.50;99.90
4518;DHT22;2271;49.464;11.070;2022-12-17T11:10:29;-2.40;99.90
4518;DHT22;2271;49.464;11.070;2022-12-17T11:15:59;-2.70;99.90
4518;DHT22;2271;49.464;11.070;2022-12-17T11:21:51;-2.60;99.90
4518;DHT22;2271;49.464;11.070;2022-12-17T11:25:01;-2.50;99.90
4518;DHT22;2271;49.464;11.070;2022-12-17T11:28:32;-2.40;99.90
4518;DHT22;2271;49.464;11.070;2022-12-17T11:40:10;-2.20;99.90
4518;DHT22;2271;49.464;11.070;2022-12-17T11:43:10;-2.20;99.90
4518;DHT22;2271;49.464;11.070;2022-12-17T11:49:16;-2.10;99.90
4518;DHT22;2271;49.464;11.070;2022-12-17T11:55:16;-2.00;99.90
4518;DHT22;2271;49.464;11.070;2022-12-17T11:58:10;-2.00;99.90
4518;DHT22;2271;49.464;11.070;2022-12-17T12:01:36;-2.00;99.90
4518;DHT22;2271;49.464;11.070;2022-12-17T12:08:08;-2.00;99.90
4518;DHT22;2271;49.464;11.070;2022-12-17T12:14:10;-1.90;99.90
4518;DHT22;2271;49.464;11.070;2022-12-17T12:26:19;-1.90;99.90
4518;DHT22;2271;49.464;11.070;2022-12-17T12:32:21;-1.80;99.90
4518;DHT22;2271;49.464;11.070;2022-12-17T12:35:14;-1.80;99.90
4518;DHT22;2271;49.464;11.070;2022-12-17T12:38:00;-1.70;99.90
4518;DHT22;2271;49.464;11.070;2022-12-17T12:40:59;-1.70;99.90
4518;DHT22;2271;49.464;11.070;2022-12-17T12:43:52;-1.70;99.90
4518;DHT22;2271;49.464;11.070;2022-12-17T12:46:56;-1.70;99.90
4518;DHT22;2271;49.464;11.070;2022-12-17T12:49:49;-1.70;99.90
4518;DHT22;2271;49.464;11.070;2022-12-17T12:52:36;-1.80;99.90
4518;DHT22;2271;49.464;11.070;2022-12-17T12:55:20;-1.70;99.90
4518;DHT22;2271;49.464;11.070;2022-12-17T12:58:22;-1.70;99.90
4518;DHT22;2271;49.464;11.070;2022-12-17T13:01:07;-1.60;99.90
4518;DHT22;2271;49.464;11.070;2022-12-17T13:03:52;-1.60;99.90
4518;DHT22;2271;49.464;11.070;2022-12-17T13:11:42;-1.60;99.90
4518;DHT22;2271;49.464;11.070;2022-12-17T13:14:15;-1.50;99.90
4518;DHT22;2271;49.464;11.070;2022-12-17T13:16:54;-1.50;99.90
4518;DHT22;2271;49.464;11.070;2022-12-17T13:24:40;-1.40;99.90
4518;DHT22;2271;49.464;11.070;2022-12-17T13:27:27;-1.40;99.90
4518;DHT22;2271;49.464;11.070;2022-12-17T13:29:52;-1.30;99.90
4518;DHT22;2271;49.464;11.070;2022-12-17T13:32:37;-1.40;99.90
4518;DHT22;2271;49.464;11.070;2022-12-17T13:41:30;-1.30;99.90
4518;DHT22;2271;49.464;11.070;2022-12-17T13:44:11;-1.30;99.90
4518;DHT22;2271;49.464;11.070;2022-12-17T13:46:42;-1.30;99.90
4518;DHT22;2271;49.464;11.070;2022-12-17T13:49:28;-1.30;99.90
4518;DHT22;2271;49.464;11.070;2022-12-17T13:52:06;-1.30;99.90
4518;DHT22;2271;49.464;11.070;2022-12-17T13:54:32;-1.30;99.90
4518;DHT22;2271;49.464;11.070;2022-12-17T13:57:09;-1.30;99.90
4518;DHT22;2271;49.464;11.070;2022-12-17T13:59:37;-1.30;99.90
4518;DHT22;2271;49.464;11.070;2022-12-17T14:02:02;-1.30;99.90
4518;DHT22;2271;49.464;11.070;2022-12-17T14:04:29;-1.30;99.90
4518;DHT22;2271;49.464;11.070;2022-12-17T14:06:57;-1.30;99.90
4518;DHT22;2271;49.464;11.070;2022-12-17T14:09:31;-1.30;99.90
4518;DHT22;2271;49.464;11.070;2022-12-17T14:11:58;-1.20;99.90
4518;DHT22;2271;49.464;11.070;2022-12-17T14:14:58;-1.30;99.90
4518;DHT22;2271;49.464;11.070;2022-12-17T14:17:35;-1.30;99.90
4518;DHT22;2271;49.464;11.070;2022-12-17T14:20:04;-1.20;99.90
4518;DHT22;2271;49.464;11.070;2022-12-17T14:22:39;-1.30;99.90
4518;DHT22;2271;49.464;11.070;2022-12-17T14:25:13;-1.30;99.90
4518;DHT22;2271;49.464;11.070;2022-12-17T14:27:40;-1.30;99.90
4518;DHT22;2271;49.464;11.070;2022-12-17T14:30:23;-1.30;99.90
4518;DHT22;2271;49.464;11.070;2022-12-17T14:32:49;-1.30;99.90
4518;DHT22;2271;49.464;11.070;2022-12-17T14:35:23;-1.30;99.90
4518;DHT22;2271;49.464;11.070;2022-12-17T14:37:49;-1.40;99.90
4518;DHT22;2271;49.464;11.070;2022-12-17T14:40:15;-1.30;99.90
4518;DHT22;2271;49.464;11.070;2022-12-17T14:42:41;-1.30;99.90
4518;DHT22;2271;49.464;11.070;2022-12-17T14:45:26;-1.30;99.90
4518;DHT22;2271;49.464;11.070;2022-12-17T14:48:01;-1.30;99.90
4518;DHT22;2271;49.464;11.070;2022-12-17T14:50:32;-1.30;99.90
4518;DHT22;2271;49.464;11.070;2022-12-17T14:53:04;-1.30;99.90
4518;DHT22;2271;49.464;11.070;2022-12-17T14:55:55;-1.40;99.90
4518;DHT22;2271;49.464;11.070;2022-12-17T14:58:23;-1.40;99.90
4518;DHT22;2271;49.464;11.070;2022-12-17T15:00:56;-1.40;99.90
4518;DHT22;2271;49.464;11.070;2022-12-17T15:03:30;-1.40;99.90
4518;DHT22;2271;49.464;11.070;2022-12-17T15:06:08;-1.40;99.90
4518;DHT22;2271;49.464;11.070;2022-12-17T15:08:45;-1.50;99.90
4518;DHT22;2271;49.464;11.070;2022-12-17T15:11:18;-1.60;99.90
4518;DHT22;2271;49.464;11.070;2022-12-17T15:13:44;-1.60;99.90
4518;DHT22;2271;49.464;11.070;2022-12-17T15:16:10;-1.60;99.90
4518;DHT22;2271;49.464;11.070;2022-12-17T15:18:36;-1.70;99.90
4518;DHT22;2271;49.464;11.070;2022-12-17T15:21:02;-1.70;99.90
4518;DHT22;2271;49.464;11.070;2022-12-17T15:23:28;-1.70;99.90
4518;DHT22;2271;49.464;11.070;2022-12-17T15:25:54;-1.70;99.90
4518;DHT22;2271;49.464;11.070;2022-12-17T15:28:21;-1.90;99.90
4518;DHT22;2271;49.464;11.070;2022-12-17T15:30:48;-1.90;99.90
4518;DHT22;2271;49.464;11.070;2022-12-17T15:33:14;-1.90;99.90
4518;DHT22;2271;49.464;11.070;2022-12-17T15:35:41;-1.80;99.90
4518;DHT22;2271;49.464;11.070;2022-12-17T15:38:07;-1.90;99.90
4518;DHT22;2271;49.464;11.070;2022-12-17T15:40:34;-1.80;99.90
4518;DHT22;2271;49.464;11.070;2022-12-17T15:43:00;-1.90;99.90
4518;DHT22;2271;49.464;11.070;2022-12-17T15:45:50;-1.90;99.90
4518;DHT22;2271;49.464;11.070;2022-12-17T15:48:18;-1.80;99.90
4518;DHT22;2271;49.464;11.070;2022-12-17T15:50:44;-1.90;99.90
4518;DHT22;2271;49.464;11.070;2022-12-17T15:53:09;-1.80;99.90
4518;DHT22;2271;49.464;11.070;2022-12-17T15:55:36;-1.90;99.90
4518;DHT22;2271;49.464;11.070;2022-12-17T15:58:03;-1.90;99.90
4518;DHT22;2271;49.464;11.070;2022-12-17T16:00:28;-1.90;99.90
4518;DHT22;2271;49.464;11.070;2022-12-17T16:02:54;-1.90;99.90
4518;DHT22;2271;49.464;11.070;2022-12-17T16:05:20;-1.90;99.90
4518;DHT22;2271;49.464;11.070;2022-12-17T16:07:46;-2.00;99.90
4518;DHT22;2271;49.464;11.070;2022-12-17T16:10:13;-2.10;99.90
4518;DHT22;2271;49.464;11.070;2022-12-17T16:12:38;-2.10;99.90
4518;DHT22;2271;49.464;11.070;2022-12-17T16:15:05;-2.10;99.90
4518;DHT22;2271;49.464;11.070;2022-12-17T16:17:32;-2.20;99.90
4518;DHT22;2271;49.464;11.070;2022-12-17T16:19:58;-2.10;99.90
4518;DHT22;2271;49.464;11.070;2022-12-17T16:22:25;-2.00;99.90
4518;DHT22;2271;49.464;11.070;2022-12-17T16:24:51;-2.00;99.90
4518;DHT22;2271;49.464;11.070;2022-12-17T16:27:17;-1.90;99.90
4518;DHT22;2271;49.464;11.070;2022-12-17T16:29:43;-1.90;99.90
4518;DHT22;2271;49.464;11.070;2022-12-17T16:32:10;-1.90;99.90
4518;DHT22;2271;49.464;11.070;2022-12-17T16:34:35;-1.90;99.90
4518;DHT22;2271;49.464;11.070;2022-12-17T16:37:01;-1.90;99.90
4518;DHT22;2271;49.464;11.070;2022-12-17T16:39:27;-1.90;99.90
4518;DHT22;2271;49.464;11.070;2022-12-17T16:41:52;-2.00;99.90
4518;DHT22;2271;49.464;11.070;2022-12-17T16:44:18;-2.10;99.90
4518;DHT22;2271;49.464;11.070;2022-12-17T16:46:44;-2.10;99.90
4518;DHT22;2271;49.464;11.070;2022-12-17T16:49:16;-2.10;99.90
4518;DHT22;2271;49.464;11.070;2022-12-17T16:51:43;-2.00;99.90
4518;DHT22;2271;49.464;11.070;2022-12-17T16:54:12;-2.00;99.90
4518;DHT22;2271;49.464;11.070;2022-12-17T16:56:39;-2.00;99.90
4518;DHT22;2271;49.464;11.070;2022-12-17T16:59:05;-2.00;99.90
4518;DHT22;2271;49.464;11.070;2022-12-17T17:01:32;-2.00;99.90
4518;DHT22;2271;49.464;11.070;2022-12-17T17:03:58;-2.00;99.90
4518;DHT22;2271;49.464;11.070;2022-12-17T17:06:24;-2.00;99.90
4518;DHT22;2271;49.464;11.070;2022-12-17T17:08:49;-2.00;99.90
4518;DHT22;2271;49.464;11.070;2022-12-17T17:11:19;-2.10;99.90
4518;DHT22;2271;49.464;11.070;2022-12-17T17:13:47;-2.00;99.90
4518;DHT22;2271;49.464;11.070;2022-12-17T17:16:13;-2.10;99.90
4518;DHT22;2271;49.464;11.070;2022-12-17T17:18:39;-2.00;99.90
4518;DHT22;2271;49.464;11.070;2022-12-17T17:23:40;-2.10;99.90
4518;DHT22;2271;49.464;11.070;2022-12-17T17:26:06;-2.10;99.90
4518;DHT22;2271;49.464;11.070;2022-12-17T17:28:32;-2.20;99.90
4518;DHT22;2271;49.464;11.070;2022-12-17T17:31:00;-2.20;99.90
4518;DHT22;2271;49.464;11.070;2022-12-17T17:33:31;-2.30;99.90
4518;DHT22;2271;49.464;11.070;2022-12-17T17:36:12;-2.30;99.90
4518;DHT22;2271;49.464;11.070;2022-12-17T17:38:39;-2.30;99.90
4518;DHT22;2271;49.464;11.070;2022-12-17T17:41:06;-2.30;99.90
4518;DHT22;2271;49.464;11.070;2022-12-17T17:43:33;-2.40;99.90
4518;DHT22;2271;49.464;11.070;2022-12-17T17:46:15;-2.40;99.90
4518;DHT22;2271;49.464;11.070;2022-12-17T17:48:42;-2.40;99.90
4518;DHT22;2271;49.464;11.070;2022-12-17T17:51:18;-2.30;99.90
4518;DHT22;2271;49.464;11.070;2022-12-17T17:53:45;-2.30;99.90
4518;DHT22;2271;49.464;11.070;2022-12-17T17:56:15;-2.30;99.90
4518;DHT22;2271;49.464;11.070;2022-12-17T17:58:52;-2.30;99.90
4518;DHT22;2271;49.464;11.070;2022-12-17T18:01:21;-2.20;99.90
4518;DHT22;2271;49.464;11.070;2022-12-17T18:03:48;-2.30;99.90
4518;DHT22;2271;49.464;11.070;2022-12-17T18:06:14;-2.30;99.90
4518;DHT22;2271;49.464;11.070;2022-12-17T18:08:41;-2.30;99.90
4518;DHT22;2271;49.464;11.070;2022-12-17T18:11:08;-2.30;99.90
4518;DHT22;2271;49.464;11.070;2022-12-17T18:13:34;-2.20;99.90
4518;DHT22;2271;49.464;11.070;2022-12-17T18:16:19;-2.20;99.90
4518;DHT22;2271;49.464;11.070;2022-12-17T18:18:45;-2.20;99.90
4518;DHT22;2271;49.464;11.070;2022-12-17T18:21:13;-2.30;99.90
4518;DHT22;2271;49.464;11.070;2022-12-17T18:23:40;-2.30;99.90
4518;DHT22;2271;49.464;11.070;2022-12-17T18:28:36;-2.30;99.90
4518;DHT22;2271;49.464;11.070;2022-12-17T18:31:12;-2.30;99.90
4518;DHT22;2271;49.464;11.070;2022-12-17T18:33:40;-2.20;99.90